Clearlake, California
Current Conditions -  °F | °C
As of 9:53 PM on Wednesday 26 Nov 2014 (Local Time) from KSTS Reporting Station
Clear Clear  
Wind Chill: 47°   Ceiling: Unl
Heat Index: 47°   Visibility: 9mi
Dew Point: 46°   Wind: 0mph
Humidity: 97%   Direction: NA
Pressure: 30.22"   Gusts: NA
Location:  38.95°N, 122.62°W
Report Text: KSTS 270553Z AUTO 00000KT 9SM CLR 08/08 A3022 RMK AO2 SLP226 T00830078 10200 20083 51005
Loading
Personal Weather Stations






























Interactive Weather Map New forecast layout! Learn more

10-Day Weather Forecast

Advertisements
Track Severe Weather on mobile